Airfield :
LOGIN :

Register | Disclaimer

   EN    FR    IT 

 










Legend :    VFR   Marginal VFR   IFR   Intensive IFR   Very Intensive IFR
Visi :
Ceiling :
>= 8 km
>= 3000ft
5 to 8 km
1000 to 3000 ft
1500m to 5 km
500 to 1000 ft
800 to 1500m
200 to 500 ft
< 800m
< 200 ft
Symbols :   Thunderstorms  Fog  Heavy snow  Heavy precipitations  Wind > 20 kt
SIGMETs :     Misc.  Thunderstorms  Icing  Turbulence  Mountain Waves  Volcanic Ashes






- Airport Elevation : 162 ft
- IATA code : BOD


LFBD - Bordeaux / Merignac

CURRENT METAR :
  • 130730Z AUTO 29023G34KT 9999 BKN025/// BKN031/// OVC240/// ///CB 13/09 Q0998 TEMPO 3000 SHRA BKN010TCU

EXPIRED METARs :
  • 130700Z AUTO 29022KT 9999 FEW016 SCT028 BKN042 12/10 Q0997 TEMPO 3000 SHRA BKN010TCU BECMG 28020G40KT
  • 130630Z AUTO 29023KT 9999 FEW017/// SCT025/// BKN035/// ///TCU 12/11 Q0997 TEMPO 3000 SHRA BKN010TCU BECMG 28020G40KT
  • 130600Z AUTO 29030G40KT 6000 -RA SCT015/// BKN023/// BKN041/// ///TCU 12/10 Q0996 TEMPO 28030G55KT 3000 SHRA BKN010TCU
  • 130530Z AUTO 28025G42KT 9000 -RA SCT010/// BKN015/// BKN022/// ///TCU 13/12 Q0995 TEMPO 28030G55KT 3000 SHRA BKN010TCU
  • 130500Z AUTO 29029G47KT 6000 -RA BKN012/// OVC018/// ///CB 13/12 Q0995

TAF AMD TAF LFBD
Valid from the 13 at 06:00 until the 14 at 12:00 UTC


130547Z 1306/1412 28020G40KT 9999 BKN020 TX14/1318Z TN12/1313Z
TEMPO 1306/1308 28030G55KT
PROB40
TEMPO 1306/1311 3000 SHRA BKN010TCU
BECMG 1311/1313 29020G30KT
TEMPO 1311/1316 3000 SHRA BKN015TCU
BECMG 1316/1318 4000 -RA OVC010
TEMPO 1318/1410 2000 RA OVC005
PROB40
TEMPO 1320/1403 27020G40KT
ATIS : +33 5 57 92 81 04



MET'MAP, your aeronautical weather chart ! - Copyright ORBIFLY December 2007 - Disclaimer

ORBIFLY MET'MAP TEAM :

Programming & Development : Alexandra Zaïnal
Concept & original design : Baudouin d'Aumeries
Assistance for programming : Marc-Olivier Méhu
Technical & hardware support : Manuel Goepfert

Contact : metmap@orbifly.com




SOURCES & CREDITS :

   NOAA